KEYO2: Keystone Lake

Data processed at Fri Mar 09 2018 23:10


All information presented herein is the property of the government of the United States of America and may be revised or deleted at any time without prior notice.
Dissemination of this information without the expressed written consent of the Public Affairs Office, Tulsa District U.S. Army Corps of Engineers is strictly prohibited.
These data are gathered electronically and, as presented, have not undergone any form of quality control. These data are not guaranteed to be valid or correct.
Go to home page.
Go to station list.

Upstream stations:

Downstream station:
Previous Day
Next Day
Current Day
    
SHEF ID:       KEYO2     Keystone Lake
STATION TYPE:  Reservoir
Normal Pool:  Bottom =   706.00, Top =   723.00

               PRECIP ELEVATION   STORAGE   TW-ELEV    INFLOW   RELEASE  AIR-TEMP  WIND-DIRWIND-SPEED REL-HUMID SOLAR-RAD   VOLTAGE  BAT-LOAD
                   in        ft     ac-ft        ft       cfs       cfs         F       deg       mph         %      W/m2      volt      volt
              Ccp-Rev   Ccp-Rev   Ccp-Rev   Ccp-Rev  Regi-Rev  Regi-Rev   Ccp-Rev   Ccp-Rev   Ccp-Rev   Ccp-Rev   Ccp-Rev   Ccp-Rev   Ccp-Rev
(US/Central)
03/07 00:00      0.00    723.59    441897    637.50      2535         0     37.38    309.00     14.77     50.68      0.00     13.69     13.30
03/07 01:00      0.00    723.60    442066    637.50      2535       400     36.72    301.10     14.35     55.14      0.00     13.69     13.30
03/07 02:00      0.00    723.63    442573    637.50      2535         0     34.63    302.90     15.69     57.10      0.00     13.69     13.30
03/07 03:00      0.00    723.63    442573    637.50      1717         0     33.87    316.00     14.91     61.74      0.00     13.69     13.30
03/07 04:00      0.00    723.64    442742    637.50      1308         0     33.10    307.10     11.30     66.69      0.00     13.69     13.30
03/07 05:00      0.00    723.63    442573    637.49      1951         0     31.55    314.40      9.20     66.26      0.00     13.69     13.30
03/07 06:00      0.00    723.63    442573    637.47      1951       400     32.11    312.10      9.46     69.74      0.00     13.69     13.30
03/07 07:00      0.00    723.65    442911    641.12      2702      5700     31.68    300.70     13.57     70.97      3.00     13.69     12.65
03/07 08:00      0.00    723.62    442404    641.21      3452      5700     31.46    297.00     13.23     66.39    151.00     13.69     13.30
03/07 09:00      0.00    723.61    442235    641.22      4532      5800     32.99    303.70     13.91     63.33    372.00     13.69     13.30
03/07 10:00      0.00    723.60    442066    640.70      2782      5800     35.19    303.90     12.55     56.25    445.00     13.69     13.30
03/07 11:00      0.00    723.60    442066    638.59      4009      5800     36.82    297.90     11.23     57.71    762.00     13.69     13.30
03/07 12:00      0.00    723.60    442066    638.02      3258       600     40.14    292.60      9.62     50.50    886.00     13.69     13.30
03/07 13:00      0.00    723.63    442573    637.81      2917         0     43.11    297.60      9.76     44.34    910.00     13.69     13.30
03/07 14:00      0.00    723.63    442573    637.70      1797         0     46.08    296.80     12.25     35.18    867.00     13.69     13.36
03/07 15:00      0.00    723.64    442742    637.64      1717         0     49.05    290.40     12.54     34.20    751.00     13.69     13.30
03/07 16:00      0.00    723.66    443081    637.59       831         0     50.47    290.50     13.10     30.84    480.00     13.69     13.30
03/07 17:00      0.00    723.64    442742    637.78      1172       400     51.01    291.70     12.81     25.40    374.00     13.69     12.95
03/07 18:00      0.00    723.65    442911    641.10      1923      5800     51.46    292.50     10.53     28.88    135.00     13.69     13.30
03/07 19:00      0.00    723.61    442235    641.20      2634      5800     48.81    291.20      8.59     38.78      7.00     13.70     13.30
03/07 20:00      0.00    723.60    442066    641.24      2755      5800     47.71    293.50      2.48     39.33      0.00     13.69     13.30
03/07 21:00      0.00    723.59    441897    640.63      2426      5800     43.21    309.00      0.60     58.87      0.00     13.69     13.30
03/07 22:00      0.00    723.60    442066    638.59      2127      5800     36.07    344.80      1.12     61.92      0.00     13.69     13.30
03/07 23:00      0.00    723.60    442066    638.03      1051       600     37.60    119.40      1.88     52.94      0.00     13.70     13.30